Time;durP1;ratioP1;P1;durP2;ratioP2;P2;SDS_P1;SDS_P2;PMS_P1;PMS_P2;Temp;Humidity;BMP_temperature;BMP_pressure;BME280_temperature;BME280_humidity;BME280_pressure;Samples;Min_cycle;Max_cycle;Signal;HPM_P1;HPM_P2
2021/08/04 00:00:33;;;;;;;16.15;9.00;;;20.40;75.40;;;;;;4994021;28;20015;-76
2021/08/04 00:02:59;;;;;;;13.45;9.60;;;20.40;75.50;;;;;;4993845;28;20102;-72
2021/08/04 00:05:25;;;;;;;10.43;8.70;;;20.40;75.60;;;;;;4993815;28;20452;-72
2021/08/04 00:07:51;;;;;;;12.43;9.18;;;20.40;75.70;;;;;;4993687;28;20034;-73
2021/08/04 00:10:17;;;;;;;11.88;8.70;;;20.40;75.80;;;;;;4976171;28;20106;-73
2021/08/04 00:12:43;;;;;;;11.82;9.00;;;20.40;76.00;;;;;;4993837;28;20049;-71
2021/08/04 00:15:10;;;;;;;14.93;9.10;;;20.30;75.90;;;;;;4993769;28;20030;-72
2021/08/04 00:17:37;;;;;;;13.30;8.80;;;20.30;76.00;;;;;;4993886;28;20023;-72
2021/08/04 00:20:04;;;;;;;11.18;8.75;;;20.30;75.90;;;;;;4993765;28;20023;-72
2021/08/04 00:22:30;;;;;;;15.98;9.02;;;20.30;75.90;;;;;;4976404;28;20027;-72
2021/08/04 00:24:56;;;;;;;11.15;9.02;;;20.20;75.90;;;;;;4993711;28;20023;-72
2021/08/04 00:27:24;;;;;;;13.63;9.95;;;20.20;75.90;;;;;;4993660;28;20022;-72
2021/08/04 00:29:49;;;;;;;12.52;9.13;;;20.20;75.90;;;;;;4993512;28;20038;-71
2021/08/04 00:32:15;;;;;;;16.05;9.50;;;20.20;76.00;;;;;;4993209;28;20046;-71
2021/08/04 00:34:41;;;;;;;14.48;9.38;;;20.20;76.10;;;;;;4993250;28;20025;-71
2021/08/04 00:37:06;;;;;;;14.10;8.77;;;20.20;76.20;;;;;;4993346;28;20049;-72
2021/08/04 00:39:32;;;;;;;16.60;10.15;;;20.10;76.20;;;;;;4993301;28;20373;-72
2021/08/04 00:41:58;;;;;;;16.67;8.95;;;20.10;76.20;;;;;;4993445;28;20045;-72
2021/08/04 00:44:24;;;;;;;12.75;9.27;;;20.10;76.40;;;;;;4993611;28;20023;-71
2021/08/04 00:46:49;;;;;;;15.85;9.18;;;20.10;76.40;;;;;;4993360;28;20038;-71
2021/08/04 00:49:15;;;;;;;16.58;8.82;;;20.10;76.50;;;;;;4993078;28;20052;-71
2021/08/04 00:51:41;;;;;;;10.45;8.98;;;20.10;77.20;;;;;;4993190;28;20037;-72
2021/08/04 00:54:08;;;;;;;9.98;8.55;;;20.10;76.70;;;;;;4993147;28;20034;-73
2021/08/04 00:56:35;;;;;;;13.90;8.75;;;20.10;76.70;;;;;;4992998;28;20097;-73
2021/08/04 00:59:02;;;;;;;11.07;8.23;;;20.00;76.70;;;;;;4992839;28;20037;-73
2021/08/04 01:01:34;;;;;;;13.50;8.82;;;20.00;76.80;;;;;;4993084;28;20029;-72
2021/08/04 01:04:07;;;;;;;15.88;9.57;;;20.00;76.90;;;;;;4993578;28;20018;-72
2021/08/04 01:06:49;;;;;;;14.00;9.15;;;20.00;77.00;;;;;;4993002;28;20030;-72
2021/08/04 01:09:19;;;;;;;19.20;9.97;;;19.90;77.00;;;;;;4993104;28;20061;-73
2021/08/04 01:11:52;;;;;;;10.93;9.05;;;20.00;77.20;;;;;;4993041;28;20034;-73
2021/08/04 01:14:22;;;;;;;12.93;9.73;;;19.90;77.20;;;;;;4993280;28;20022;-78
2021/08/04 01:16:49;;;;;;;12.45;8.77;;;19.90;77.20;;;;;;4993118;28;20034;-78
2021/08/04 01:19:44;;;;;;;14.43;9.20;;;19.90;77.30;;;;;;4992890;28;20026;-73
2021/08/04 01:22:18;;;;;;;12.48;9.15;;;19.90;77.30;;;;;;4992655;28;20101;-73
2021/08/04 01:24:58;;;;;;;12.27;9.10;;;19.80;77.20;;;;;;4992646;28;20026;-73
2021/08/04 01:27:25;;;;;;;16.00;9.70;;;19.80;77.20;;;;;;4992643;28;20018;-73
2021/08/04 01:29:51;;;;;;;11.98;9.27;;;19.80;77.30;;;;;;4992678;28;20486;-73
2021/08/04 01:32:18;;;;;;;13.40;9.77;;;19.70;77.40;;;;;;4992370;28;20042;-73
2021/08/04 01:34:46;;;;;;;12.25;9.27;;;19.70;77.50;;;;;;4992590;28;20105;-73
2021/08/04 01:37:13;;;;;;;12.77;10.57;;;19.70;77.60;;;;;;4992532;28;20065;-73
2021/08/04 01:39:39;;;;;;;12.80;10.05;;;19.70;77.80;;;;;;4992331;28;20026;-73
2021/08/04 01:42:05;;;;;;;14.70;10.50;;;19.70;77.80;;;;;;4992479;28;20067;-73
2021/08/04 01:44:34;;;;;;;14.40;10.93;;;19.70;77.90;;;;;;4992363;28;20022;-73
2021/08/04 01:47:00;;;;;;;16.77;10.98;;;19.60;77.90;;;;;;4992318;28;20053;-73
2021/08/04 01:49:28;;;;;;;12.88;9.70;;;19.60;78.10;;;;;;4992453;28;20034;-77
2021/08/04 01:51:55;;;;;;;13.30;10.13;;;19.60;78.20;;;;;;4975129;28;20492;-78
2021/08/04 01:54:21;;;;;;;12.20;10.40;;;19.60;78.30;;;;;;4992497;28;20038;-77
2021/08/04 01:56:46;;;;;;;12.88;9.60;;;19.50;78.30;;;;;;4992239;28;20030;-77
2021/08/04 01:59:13;;;;;;;11.40;9.43;;;19.50;78.40;;;;;;4992470;28;20034;-77
2021/08/04 02:01:39;;;;;;;13.00;9.05;;;19.60;78.50;;;;;;4992275;28;20361;-72
2021/08/04 02:04:05;;;;;;;13.35;10.43;;;19.50;78.50;;;;;;4992267;28;20037;-73
2021/08/04 02:06:54;;;;;;;13.35;9.82;;;19.50;78.60;;;;;;4992318;28;20032;-73
2021/08/04 02:09:37;;;;;;;17.02;9.50;;;19.40;78.40;;;;;;4992238;28;20029;-73
2021/08/04 02:12:06;;;;;;;11.90;9.90;;;19.40;78.20;;;;;;4996139;28;20023;-73
2021/08/04 02:14:37;;;;;;;12.35;8.88;;;19.40;77.90;;;;;;4996085;28;20026;-72
2021/08/04 02:17:40;;;;;;;14.05;10.02;;;19.30;77.90;;;;;;4996102;28;20062;-76
2021/08/04 02:20:12;;;;;;;12.48;9.75;;;19.40;78.30;;;;;;4995781;28;20023;-76
2021/08/04 02:22:57;;;;;;;15.07;9.70;;;19.40;78.40;;;;;;4995706;28;20072;-76
2021/08/04 02:25:31;;;;;;;15.80;9.55;;;19.40;78.30;;;;;;4996053;28;20033;-76
2021/08/04 02:27:59;;;;;;;17.38;9.40;;;19.40;78.40;;;;;;4995969;28;20029;-76
2021/08/04 02:30:27;;;;;;;18.98;10.77;;;19.50;78.60;;;;;;4978550;28;20072;-77
2021/08/04 02:32:54;;;;;;;14.43;10.75;;;19.50;78.60;;;;;;4995637;28;20100;-75
2021/08/04 02:35:20;;;;;;;17.38;10.63;;;19.50;78.60;;;;;;4978208;28;20042;-76
2021/08/04 02:37:46;;;;;;;16.17;10.77;;;19.50;78.50;;;;;;4995695;28;20072;-76
2021/08/04 02:40:13;;;;;;;17.75;11.50;;;19.60;78.50;;;;;;4995588;28;20057;-75
2021/08/04 02:42:40;;;;;;;17.42;11.75;;;19.60;78.40;;;;;;4995512;28;20038;-75
2021/08/04 02:45:06;;;;;;;17.42;11.98;;;19.60;78.20;;;;;;4995477;28;20026;-76
2021/08/04 02:47:33;;;;;;;18.20;11.32;;;19.70;78.20;;;;;;4995781;28;20365;-76
2021/08/04 02:50:01;;;;;;;14.07;10.70;;;20.00;78.00;;;;;;4995520;28;20027;-75
2021/08/04 02:52:27;;;;;;;14.18;9.90;;;20.50;77.10;;;;;;4995443;28;20377;-76
2021/08/04 02:54:53;;;;;;;18.65;11.13;;;21.10;76.40;;;;;;4995521;28;20076;-77
2021/08/04 02:57:19;;;;;;;25.77;11.02;;;21.70;74.10;;;;;;4995468;28;20023;-72
2021/08/04 02:59:45;;;;;;;20.83;9.77;;;22.40;72.30;;;;;;4977800;28;20456;-72
2021/08/04 03:02:10;;;;;;;22.30;9.77;;;23.10;70.70;;;;;;4995145;28;20105;-73
2021/08/04 03:04:36;;;;;;;24.15;9.30;;;23.80;68.90;;;;;;4995245;28;20033;-72
2021/08/04 03:07:02;;;;;;;20.13;8.38;;;24.50;67.10;;;;;;4995156;28;20031;-73
2021/08/04 03:09:28;;;;;;;17.17;9.55;;;25.20;65.50;;;;;;4994983;28;20022;-73
2021/08/04 03:11:53;;;;;;;14.27;9.07;;;25.90;64.60;;;;;;4994994;28;20157;-73
2021/08/04 03:14:19;;;;;;;12.95;8.85;;;26.60;62.60;;;;;;4994783;28;20026;-73
2021/08/04 03:16:45;;;;;;;20.75;10.23;;;27.40;61.20;;;;;;4994814;28;20031;-73
2021/08/04 03:19:11;;;;;;;17.52;9.18;;;28.10;59.90;;;;;;4994889;28;20104;-73
2021/08/04 03:21:37;;;;;;;9.98;7.97;;;28.80;58.50;;;;;;4994447;28;20030;-73
2021/08/04 03:24:03;;;;;;;11.23;8.20;;;29.50;57.10;;;;;;4994783;28;20024;-73
2021/08/04 03:26:28;;;;;;;17.35;8.93;;;30.20;55.70;;;;;;4994620;28;20505;-73
2021/08/04 03:28:54;;;;;;;16.05;11.68;;;30.90;54.50;;;;;;4977271;28;20030;-73
2021/08/04 03:31:20;;;;;;;17.95;11.88;;;31.50;53.10;;;;;;4994183;28;20030;-73
2021/08/04 03:33:45;;;;;;;15.50;8.50;;;32.10;52.00;;;;;;4994328;28;20069;-72
2021/08/04 03:36:11;;;;;;;10.70;7.95;;;32.60;50.80;;;;;;4994259;28;20141;-73
2021/08/04 03:38:37;;;;;;;10.52;8.15;;;33.20;50.00;;;;;;4994025;28;20025;-73
2021/08/04 03:41:03;;;;;;;21.05;8.77;;;33.70;49.10;;;;;;4994630;28;20041;-73
2021/08/04 03:43:28;;;;;;;15.60;8.52;;;34.40;48.90;;;;;;4993854;28;20035;-73
2021/08/04 03:45:54;;;;;;;13.73;9.07;;;35.00;47.20;;;;;;4993061;28;20118;-72
2021/08/04 03:48:20;;;;;;;16.33;9.18;;;35.50;46.50;;;;;;4993364;28;20026;-72
2021/08/04 03:50:46;;;;;;;15.82;9.13;;;36.10;45.70;;;;;;4993562;28;20432;-71
2021/08/04 03:53:12;;;;;;;17.60;9.32;;;36.60;44.80;;;;;;4994017;28;20049;-74
2021/08/04 03:55:37;;;;;;;19.40;9.90;;;37.10;44.00;;;;;;4993854;28;20022;-73
2021/08/04 03:58:03;;;;;;;15.80;8.38;;;37.60;43.40;;;;;;4993770;28;20022;-73
2021/08/04 04:00:29;;;;;;;10.73;7.05;;;38.10;42.80;;;;;;4993927;28;20081;-73
2021/08/04 04:02:55;;;;;;;13.05;7.25;;;38.50;42.10;;;;;;4993871;28;20049;-73
2021/08/04 04:05:20;;;;;;;24.92;6.47;;;39.00;41.80;;;;;;4993773;28;20027;-73
2021/08/04 04:07:46;;;;;;;7.97;6.38;;;39.40;41.40;;;;;;4993295;28;20041;-77
2021/08/04 04:10:12;;;;;;;15.73;7.75;;;39.70;40.90;;;;;;4994209;28;20077;-76
2021/08/04 04:12:38;;;;;;;11.90;7.25;;;40.10;40.50;;;;;;4993790;28;20393;-77
2021/08/04 04:15:05;;;;;;;10.27;7.38;;;40.50;40.30;;;;;;4993635;28;20026;-72
2021/08/04 04:17:31;;;;;;;15.32;8.60;;;40.80;39.80;;;;;;4993505;28;20022;-72
2021/08/04 04:19:57;;;;;;;14.95;8.52;;;41.10;39.50;;;;;;4993250;28;20033;-73
2021/08/04 04:22:22;;;;;;;13.70;9.15;;;41.40;39.10;;;;;;4993352;28;20362;-73
2021/08/04 04:24:48;;;;;;;9.90;8.10;;;41.60;38.70;;;;;;4993287;28;20413;-73
2021/08/04 04:27:14;;;;;;;11.95;8.50;;;41.90;38.40;;;;;;4992735;28;20088;-73
2021/08/04 04:29:40;;;;;;;7.05;6.20;;;42.10;38.20;;;;;;4993020;28;20030;-73
2021/08/04 04:32:08;;;;;;;10.75;6.95;;;42.30;38.00;;;;;;4992572;28;20072;-73
2021/08/04 04:34:34;;;;;;;7.05;6.35;;;42.50;37.90;;;;;;4992684;28;20385;-73
2021/08/04 04:36:59;;;;;;;10.85;7.40;;;42.70;37.80;;;;;;4992756;28;20022;-73
2021/08/04 04:39:26;;;;;;;9.07;6.78;;;42.90;37.60;;;;;;4993125;28;20022;-74
2021/08/04 04:41:52;;;;;;;10.68;8.30;;;43.10;37.30;;;;;;4992974;28;20029;-74
2021/08/04 04:44:18;;;;;;;10.85;9.15;;;43.40;37.00;;;;;;4992759;28;20035;-74
2021/08/04 04:46:44;;;;;;;10.50;7.90;;;43.60;36.90;;;;;;4992938;28;20026;-73
2021/08/04 04:49:09;;;;;;;7.78;6.60;;;43.80;36.80;;;;;;4992588;28;20064;-73
2021/08/04 04:51:35;;;;;;;8.73;6.63;;;44.10;36.60;;;;;;4992776;28;20083;-74
2021/08/04 04:54:01;;;;;;;11.13;7.53;;;44.30;36.40;;;;;;4992524;28;20142;-74
2021/08/04 04:56:27;;;;;;;9.85;6.90;;;44.70;36.20;;;;;;4992258;28;20081;-75
2021/08/04 04:58:54;;;;;;;8.77;7.88;;;44.80;36.00;;;;;;4991267;28;20423;-74
2021/08/04 05:01:20;;;;;;;7.72;6.65;;;45.00;35.90;;;;;;4992093;28;20026;-74
2021/08/04 05:03:46;;;;;;;7.40;6.65;;;45.20;35.70;;;;;;4992440;28;20049;-76
2021/08/04 05:06:12;;;;;;;7.38;6.72;;;45.40;35.60;;;;;;4992589;28;20868;-75
2021/08/04 05:08:37;;;;;;;9.70;6.55;;;45.30;35.30;;;;;;4992184;28;20022;-73
2021/08/04 05:11:04;;;;;;;8.05;6.88;;;45.10;35.50;;;;;;4992113;28;20473;-74
2021/08/04 05:13:30;;;;;;;7.97;6.47;;;44.80;35.40;;;;;;4991926;28;20026;-73
2021/08/04 05:15:56;;;;;;;11.38;6.88;;;44.70;35.90;;;;;;4991866;28;20057;-74
2021/08/04 05:18:21;;;;;;;11.75;6.90;;;44.70;36.00;;;;;;4975212;28;20034;-74
2021/08/04 05:20:47;;;;;;;7.68;6.88;;;44.80;36.00;;;;;;4992105;28;20027;-76
2021/08/04 05:23:13;;;;;;;7.40;6.70;;;44.80;35.70;;;;;;4991912;28;20050;-74
2021/08/04 05:25:39;;;;;;;7.18;6.10;;;44.60;35.90;;;;;;4991430;28;20105;-75
2021/08/04 05:28:05;;;;;;;7.93;6.10;;;44.80;36.10;;;;;;4992058;28;20030;-75
2021/08/04 05:30:31;;;;;;;5.72;5.22;;;45.10;36.00;;;;;;4991524;28;20036;-75
2021/08/04 05:32:56;;;;;;;9.55;5.90;;;45.40;35.10;;;;;;4991769;28;20125;-75
2021/08/04 05:35:22;;;;;;;9.60;5.57;;;45.20;34.70;;;;;;4992031;28;20431;-75
2021/08/04 05:37:48;;;;;;;15.07;5.97;;;45.20;34.90;;;;;;4991364;28;20022;-75
2021/08/04 05:40:14;;;;;;;7.57;5.93;;;45.30;34.80;;;;;;4991335;28;20030;-77
2021/08/04 05:42:40;;;;;;;15.38;5.95;;;45.60;34.90;;;;;;4991805;28;20023;-77
2021/08/04 05:45:07;;;;;;;7.32;5.80;;;45.80;34.60;;;;;;4990994;28;20037;-77
2021/08/04 05:47:33;;;;;;;8.00;5.47;;;46.10;34.40;;;;;;4992024;28;20105;-78
2021/08/04 05:49:59;;;;;;;5.78;5.28;;;46.20;34.10;;;;;;4991372;28;20118;-77
2021/08/04 05:52:24;;;;;;;7.03;4.88;;;46.30;33.60;;;;;;4991706;28;20034;-77
2021/08/04 05:54:51;;;;;;;10.07;5.07;;;46.40;33.40;;;;;;4991562;28;20030;-77
2021/08/04 05:57:17;;;;;;;7.72;5.13;;;46.40;33.10;;;;;;4991915;28;20031;-77
2021/08/04 05:59:42;;;;;;;5.70;4.85;;;46.60;33.00;;;;;;4991807;28;20065;-79
2021/08/04 06:02:08;;;;;;;5.95;5.15;;;46.70;32.90;;;;;;4991756;28;20026;-76
2021/08/04 06:04:34;;;;;;;7.93;5.75;;;46.80;33.00;;;;;;4991981;28;20050;-79
2021/08/04 06:07:00;;;;;;;7.13;5.00;;;47.00;32.90;;;;;;4992529;28;20034;-74
2021/08/04 06:09:26;;;;;;;6.22;5.05;;;47.10;32.70;;;;;;4991257;28;20033;-77
2021/08/04 06:11:52;;;;;;;6.47;5.88;;;47.10;32.60;;;;;;4991778;28;20030;-76
2021/08/04 06:14:17;;;;;;;9.05;5.82;;;47.10;32.50;;;;;;4992292;28;20086;-76
2021/08/04 06:16:43;;;;;;;14.95;7.60;;;47.00;32.50;;;;;;4991416;28;20066;-76
2021/08/04 06:19:09;;;;;;;16.83;7.80;;;47.00;32.50;;;;;;4992176;28;20369;-75
2021/08/04 06:21:35;;;;;;;38.17;10.65;;;47.00;32.30;;;;;;4991607;28;20069;-78
2021/08/04 06:24:01;;;;;;;11.02;6.22;;;47.00;32.20;;;;;;4991339;28;20046;-78
2021/08/04 06:26:27;;;;;;;10.15;5.78;;;46.90;32.10;;;;;;4991691;28;20065;-75
2021/08/04 06:28:52;;;;;;;5.30;4.80;;;47.00;32.20;;;;;;4991897;28;20023;-75
2021/08/04 06:31:18;;;;;;;5.22;4.50;;;47.00;31.80;;;;;;4991462;28;20037;-75
2021/08/04 06:33:44;;;;;;;10.75;6.05;;;46.60;31.60;;;;;;4991473;28;20101;-75
2021/08/04 06:36:10;;;;;;;5.60;4.55;;;46.40;31.70;;;;;;4991390;28;20126;-71
2021/08/04 06:38:35;;;;;;;11.23;5.38;;;46.20;31.40;;;;;;4991811;28;20789;-72
2021/08/04 06:41:01;;;;;;;5.43;4.50;;;46.20;31.60;;;;;;4991983;28;20093;-71
2021/08/04 06:43:28;;;;;;;5.97;4.38;;;45.90;31.70;;;;;;4991263;28;20034;-71
2021/08/04 06:45:53;;;;;;;11.20;4.57;;;45.90;31.80;;;;;;4991014;28;20026;-71
2021/08/04 06:48:19;;;;;;;7.70;5.55;;;45.90;31.90;;;;;;4990651;28;20130;-71
2021/08/04 06:50:45;;;;;;;4.82;4.18;;;46.00;31.90;;;;;;4991171;28;20030;-71
2021/08/04 06:53:11;;;;;;;18.60;6.10;;;46.10;31.50;;;;;;4991176;28;20530;-71
2021/08/04 06:55:37;;;;;;;6.20;3.95;;;46.10;31.60;;;;;;4991539;28;20034;-68
2021/08/04 06:58:03;;;;;;;6.70;4.68;;;46.00;31.50;;;;;;4994756;28;20033;-68
2021/08/04 07:00:29;;;;;;;7.50;4.90;;;45.90;31.40;;;;;;4994707;28;20022;-70
2021/08/04 07:02:55;;;;;;;5.13;3.72;;;45.50;31.50;;;;;;4994443;28;20033;-71
2021/08/04 07:05:20;;;;;;;4.80;3.80;;;45.10;31.30;;;;;;4994455;28;20109;-71
2021/08/04 07:07:46;;;;;;;7.40;4.18;;;44.90;31.40;;;;;;4994344;28;20026;-70
2021/08/04 07:10:14;;;;;;;4.22;3.85;;;44.80;31.60;;;;;;4994733;28;20023;-70
2021/08/04 07:12:39;;;;;;;6.03;4.13;;;44.30;31.60;;;;;;4994369;28;20148;-71
2021/08/04 07:15:06;;;;;;;4.72;4.03;;;43.80;31.90;;;;;;4994380;28;20452;-71
2021/08/04 07:17:50;;;;;;;4.50;4.10;;;43.70;32.20;;;;;;4994389;28;20060;-70
2021/08/04 07:20:18;;;;;;;4.47;4.05;;;43.60;32.20;;;;;;4977330;28;20019;-71
2021/08/04 07:22:45;;;;;;;5.35;3.90;;;43.50;32.20;;;;;;4994173;28;20026;-72
2021/08/04 07:25:11;;;;;;;7.70;4.32;;;43.60;32.20;;;;;;4994237;28;20062;-72
2021/08/04 07:27:38;;;;;;;6.30;4.07;;;43.30;31.90;;;;;;4994574;28;20029;-72
2021/08/04 07:30:06;;;;;;;8.43;4.15;;;42.70;32.10;;;;;;4994652;28;20060;-72
2021/08/04 07:32:33;;;;;;;10.43;4.10;;;42.10;32.50;;;;;;4993582;28;20043;-72
2021/08/04 07:35:01;;;;;;;7.13;3.88;;;41.70;32.80;;;;;;4993192;28;20029;-72
2021/08/04 07:37:32;;;;;;;5.60;3.95;;;41.60;32.60;;;;;;4975633;28;20022;-73
2021/08/04 07:39:58;;;;;;;20.17;5.90;;;41.40;32.50;;;;;;4993039;28;20472;-71
2021/08/04 07:42:25;;;;;;;25.48;6.18;;;41.30;32.80;;;;;;4993215;28;20161;-72
2021/08/04 07:44:51;;;;;;;9.88;4.90;;;41.30;33.10;;;;;;4993055;28;20053;-71
2021/08/04 07:47:17;;;;;;;10.77;4.55;;;41.40;33.00;;;;;;4993196;28;20524;-74
2021/08/04 07:49:42;;;;;;;14.57;4.78;;;41.30;33.00;;;;;;4993434;28;20133;-70
2021/08/04 07:52:09;;;;;;;15.52;5.05;;;41.10;33.40;;;;;;4975376;28;20034;-70
2021/08/04 07:54:35;;;;;;;19.00;5.57;;;41.10;33.20;;;;;;4993077;28;20333;-72
2021/08/04 07:57:02;;;;;;;13.63;5.25;;;40.60;33.30;;;;;;4993025;28;20026;-70
2021/08/04 07:59:28;;;;;;;18.08;7.13;;;40.10;33.50;;;;;;4993175;28;20030;-70
2021/08/04 08:01:53;;;;;;;21.42;9.80;;;39.30;34.00;;;;;;4993081;28;20065;-72
2021/08/04 08:04:19;;;;;;;17.33;6.22;;;38.90;34.70;;;;;;4993657;28;20069;-74
2021/08/04 08:06:45;;;;;;;18.98;6.13;;;38.80;34.90;;;;;;4993351;28;20057;-73
2021/08/04 08:09:13;;;;;;;13.60;6.50;;;38.60;35.10;;;;;;4992886;28;20440;-74
2021/08/04 08:11:40;;;;;;;15.52;5.55;;;38.50;35.40;;;;;;4993203;28;20045;-74
2021/08/04 08:14:06;;;;;;;25.85;6.70;;;38.50;35.70;;;;;;4993138;28;20042;-74
2021/08/04 08:16:31;;;;;;;19.63;7.45;;;38.40;35.80;;;;;;4992842;28;20031;-71
2021/08/04 08:18:57;;;;;;;12.80;6.93;;;38.10;36.00;;;;;;4992597;28;20026;-72
2021/08/04 08:21:23;;;;;;;12.80;6.30;;;37.80;36.50;;;;;;4992547;28;20026;-71
2021/08/04 08:23:52;;;;;;;13.00;6.20;;;37.60;37.10;;;;;;4992416;28;20023;-70
2021/08/04 08:26:21;;;;;;;10.68;5.35;;;37.30;37.10;;;;;;4992548;28;20072;-71
2021/08/04 08:28:48;;;;;;;17.45;7.05;;;37.00;37.60;;;;;;4992344;28;20518;-69
2021/08/04 08:31:35;;;;;;;15.38;6.95;;;36.80;38.10;;;;;;4992263;28;20042;-75
2021/08/04 08:34:03;;;;;;;15.98;7.60;;;36.60;38.10;;;;;;4993708;28;20058;-74
2021/08/04 08:36:30;;;;;;;18.10;7.78;;;36.20;38.30;;;;;;4993231;28;20053;-73
2021/08/04 08:38:57;;;;;;;19.60;6.20;;;35.50;38.80;;;;;;4992855;28;20034;-76
2021/08/04 08:41:24;;;;;;;16.65;6.78;;;34.90;39.50;;;;;;4992756;28;20057;-76
2021/08/04 08:43:49;;;;;;;14.25;7.28;;;34.60;39.90;;;;;;4993500;28;20448;-75
2021/08/04 08:46:15;;;;;;;15.80;8.35;;;34.30;40.10;;;;;;4993227;28;20122;-75
2021/08/04 08:48:49;;;;;;;16.88;6.90;;;33.80;40.30;;;;;;4992734;28;20113;-75
2021/08/04 08:51:19;;;;;;;18.58;8.23;;;33.50;41.10;;;;;;4993014;28;20033;-74
2021/08/04 08:53:46;;;;;;;14.88;7.35;;;33.20;41.30;;;;;;4992987;28;20057;-76
2021/08/04 08:56:14;;;;;;;17.88;6.15;;;33.00;41.50;;;;;;4992925;28;20038;-75
2021/08/04 08:58:44;;;;;;;28.20;7.43;;;32.70;41.50;;;;;;4992607;28;20081;-76
2021/08/04 09:01:10;;;;;;;11.82;5.53;;;32.30;41.90;;;;;;4992849;28;20404;-75
2021/08/04 09:03:35;;;;;;;14.05;6.80;;;32.20;42.50;;;;;;4992939;28;20030;-74
2021/08/04 09:06:04;;;;;;;16.00;6.80;;;32.30;42.70;;;;;;4993543;28;20027;-78
2021/08/04 09:08:32;;;;;;;12.80;6.50;;;32.60;42.70;;;;;;4992871;28;20462;-77
2021/08/04 09:11:11;;;;;;;8.23;4.63;;;32.90;42.00;;;;;;4993197;28;20030;-76
2021/08/04 09:13:37;;;;;;;8.00;5.72;;;32.80;41.70;;;;;;4993148;28;20018;-76
2021/08/04 09:16:08;;;;;;;7.97;5.88;;;32.80;41.60;;;;;;4993094;28;20027;-76
2021/08/04 09:18:49;;;;;;;14.88;6.75;;;32.50;41.60;;;;;;4992692;28;20018;-78
2021/08/04 09:21:16;;;;;;;27.52;6.68;;;32.10;42.10;;;;;;4992860;28;20050;-77
2021/08/04 09:23:50;;;;;;;8.18;6.13;;;31.70;42.50;;;;;;4992519;28;20145;-73
2021/08/04 09:26:17;;;;;;;8.80;5.25;;;31.40;42.80;;;;;;4992133;28;20061;-73
2021/08/04 09:29:01;;;;;;;8.98;5.07;;;31.10;42.90;;;;;;4992139;28;20030;-71
2021/08/04 09:31:51;;;;;;;9.02;5.40;;;30.80;43.40;;;;;;4991794;28;20018;-73
2021/08/04 09:34:39;;;;;;;6.57;5.25;;;30.60;43.70;;;;;;4992399;28;20045;-70
2021/08/04 09:37:12;;;;;;;8.07;5.15;;;30.60;43.90;;;;;;4991670;28;20027;-75
2021/08/04 09:39:43;;;;;;;6.80;4.50;;;30.50;44.00;;;;;;4991971;28;20338;-70
2021/08/04 09:42:10;;;;;;;7.93;4.28;;;30.30;44.60;;;;;;4991865;28;20121;-70
2021/08/04 09:44:57;;;;;;;9.50;4.60;;;30.10;44.80;;;;;;4991532;28;20056;-71
2021/08/04 09:47:24;;;;;;;6.05;4.10;;;29.90;45.10;;;;;;4991578;28;20094;-71
2021/08/04 09:49:57;;;;;;;4.97;4.30;;;29.80;45.40;;;;;;4991630;28;20428;-70
2021/08/04 09:52:23;;;;;;;7.85;4.65;;;29.80;45.50;;;;;;4991688;28;20026;-70
2021/08/04 09:54:48;;;;;;;7.60;4.97;;;29.90;45.60;;;;;;4991768;28;20426;-70
2021/08/04 09:57:15;;;;;;;8.23;5.63;;;30.10;45.50;;;;;;4991794;28;20026;-70
2021/08/04 10:00:00;;;;;;;9.18;5.60;;;30.20;45.30;;;;;;4991763;28;20022;-70
2021/08/04 10:02:30;;;;;;;10.63;5.85;;;30.20;45.50;;;;;;4991942;28;20023;-70
2021/08/04 10:05:16;;;;;;;11.63;6.22;;;30.30;45.40;;;;;;4974396;28;20026;-69
2021/08/04 10:08:01;;;;;;;7.13;5.43;;;30.50;44.80;;;;;;4992292;28;20022;-70
2021/08/04 10:10:30;;;;;;;11.50;4.78;;;30.50;44.60;;;;;;4992175;28;20532;-70
2021/08/04 10:12:56;;;;;;;10.75;4.78;;;30.50;44.50;;;;;;4992175;28;20034;-68
2021/08/04 10:15:22;;;;;;;9.77;5.63;;;30.70;44.30;;;;;;4991540;28;20034;-69
2021/08/04 10:17:50;;;;;;;6.30;3.78;;;30.80;43.80;;;;;;4991552;28;20097;-70
2021/08/04 10:20:16;;;;;;;6.05;3.95;;;30.90;43.60;;;;;;4991870;28;20026;-70
2021/08/04 10:22:43;;;;;;;3.85;3.45;;;31.10;43.40;;;;;;4991944;28;20022;-73
2021/08/04 10:25:09;;;;;;;9.35;3.65;;;31.30;43.00;;;;;;4991826;28;20030;-72
2021/08/04 10:27:35;;;;;;;7.32;4.20;;;31.20;42.60;;;;;;4991732;28;20023;-73
2021/08/04 10:30:02;;;;;;;8.75;4.00;;;31.20;42.60;;;;;;4991541;28;20437;-72
2021/08/04 10:32:29;;;;;;;8.65;4.72;;;31.10;42.50;;;;;;4973960;28;20460;-75
2021/08/04 10:34:56;;;;;;;14.57;5.47;;;31.10;42.40;;;;;;4975994;28;20035;-75
2021/08/04 10:37:24;;;;;;;11.13;5.78;;;31.10;42.40;;;;;;4975749;28;20027;-75
2021/08/04 10:39:51;;;;;;;8.05;4.55;;;31.00;42.30;;;;;;4975963;28;20026;-79
2021/08/04 10:42:16;;;;;;;9.75;3.80;;;30.90;42.40;;;;;;4976363;28;20441;-79
2021/08/04 10:44:44;;;;;;;7.03;3.67;;;30.90;42.40;;;;;;4977130;28;20055;-77
2021/08/04 10:47:26;;;;;;;7.90;3.58;;;31.00;42.50;;;;;;4976507;28;20072;-78
2021/08/04 10:50:10;;;;;;;7.40;3.40;;;31.00;42.40;;;;;;4977227;28;20062;-79
2021/08/04 10:53:01;;;;;;;7.25;3.55;;;31.20;42.30;;;;;;4976936;28;20031;-78
2021/08/04 10:55:29;;;;;;;4.28;3.60;;;31.30;42.40;;;;;;4975730;28;20081;-77
2021/08/04 10:58:04;;;;;;;5.90;3.63;;;31.30;42.10;;;;;;4976888;28;20023;-77
2021/08/04 11:00:31;;;;;;;5.35;3.78;;;31.20;42.30;;;;;;4976638;28;20081;-76
2021/08/04 11:02:56;;;;;;;5.45;4.28;;;31.10;42.60;;;;;;4976442;28;20528;-76
2021/08/04 11:05:22;;;;;;;5.28;3.42;;;30.90;42.70;;;;;;4976274;28;20023;-77
2021/08/04 11:08:15;;;;;;;4.55;3.10;;;30.70;43.00;;;;;;4976106;28;20023;-78
2021/08/04 11:10:41;;;;;;;5.40;3.50;;;30.50;43.20;;;;;;4975634;28;20015;-79
2021/08/04 11:13:07;;;;;;;5.03;3.00;;;30.40;43.30;;;;;;4975824;28;20027;-78
2021/08/04 11:15:34;;;;;;;4.10;3.10;;;30.50;43.20;;;;;;4975561;28;20414;-77
2021/08/04 11:18:09;;;;;;;7.97;3.53;;;30.30;43.20;;;;;;4976270;28;20029;-77
2021/08/04 11:20:39;;;;;;;7.72;3.35;;;30.30;43.70;;;;;;4976663;28;20039;-79
2021/08/04 11:23:06;;;;;;;4.40;3.50;;;30.30;43.60;;;;;;4975918;28;20023;-78
2021/08/04 11:25:38;;;;;;;4.82;3.20;;;30.20;43.80;;;;;;4975995;28;20077;-77
2021/08/04 11:28:12;;;;;;;6.25;3.33;;;30.30;43.90;;;;;;4976256;28;20481;-75
2021/08/04 11:31:04;;;;;;;11.10;3.75;;;30.30;44.00;;;;;;4976054;28;20037;-78
2021/08/04 11:33:32;;;;;;;3.50;3.20;;;30.30;44.00;;;;;;4991375;28;20493;-78
2021/08/04 11:36:08;;;;;;;4.72;3.33;;;30.10;43.80;;;;;;4994746;28;20388;-78
2021/08/04 11:38:55;;;;;;;3.67;3.15;;;30.10;44.30;;;;;;4995290;28;20033;-77
2021/08/04 11:41:30;;;;;;;4.18;3.50;;;30.10;44.20;;;;;;4995484;28;20045;-78
2021/08/04 11:44:14;;;;;;;5.03;3.70;;;30.20;44.20;;;;;;4995112;28;20041;-78
2021/08/04 11:47:01;;;;;;;10.95;3.60;;;30.30;44.30;;;;;;4995473;28;20117;-81
2021/08/04 11:49:37;;;;;;;3.90;3.60;;;30.50;44.40;;;;;;4995565;28;20029;-81
2021/08/04 11:52:04;;;;;;;4.82;3.60;;;30.60;44.00;;;;;;4978032;28;20026;-82
2021/08/04 11:54:40;;;;;;;4.82;3.35;;;30.60;43.80;;;;;;4996894;28;20030;-79
2021/08/04 11:57:10;;;;;;;7.65;3.10;;;30.60;44.20;;;;;;4977549;28;20027;-80
2021/08/04 11:59:51;;;;;;;3.38;3.08;;;30.80;44.30;;;;;;4979008;28;20026;-83
2021/08/04 12:02:18;;;;;;;10.97;4.10;;;30.80;44.10;;;;;;4995542;28;20350;-82
2021/08/04 12:05:04;;;;;;;5.47;3.60;;;30.60;44.90;;;;;;4995633;28;20030;-81
2021/08/04 12:07:32;;;;;;;10.10;4.32;;;30.40;44.40;;;;;;4978011;28;20034;-81
2021/08/04 12:10:04;;;;;;;13.93;5.65;;;30.30;44.70;;;;;;4995213;28;20368;-81
2021/08/04 12:12:33;;;;;;;10.77;4.40;;;30.10;44.80;;;;;;4995015;28;20038;-80
2021/08/04 12:15:00;;;;;;;17.70;5.65;;;29.90;45.30;;;;;;4994734;28;20417;-82
2021/08/04 12:17:35;;;;;;;10.90;5.30;;;29.80;45.60;;;;;;4994432;28;20034;-82
2021/08/04 12:20:12;;;;;;;8.88;4.47;;;29.90;45.90;;;;;;4976670;28;20022;-81
2021/08/04 12:22:38;;;;;;;5.13;4.05;;;30.00;45.80;;;;;;4994407;28;20022;-84
2021/08/04 12:25:04;;;;;;;5.10;3.65;;;30.00;45.60;;;;;;4995448;28;20026;-81
2021/08/04 12:27:35;;;;;;;6.32;3.60;;;30.00;45.70;;;;;;4993902;28;20027;-81
2021/08/04 12:30:15;;;;;;;8.38;3.40;;;30.00;45.60;;;;;;4994991;28;20109;-82
2021/08/04 12:38:29;;;;;;;5.32;3.95;;;30.30;45.80;;;;;;4995117;28;20031;-86
2021/08/04 12:40:56;;;;;;;8.00;4.20;;;30.30;45.90;;;;;;4977663;28;20049;-83
2021/08/04 12:43:34;;;;;;;5.07;3.90;;;30.30;46.00;;;;;;4995667;28;20030;-83
2021/08/04 12:46:00;;;;;;;14.15;4.00;;;30.30;46.00;;;;;;4994609;28;20109;-83
2021/08/04 12:48:35;;;;;;;6.30;3.70;;;30.40;46.10;;;;;;4978107;28;20038;-81
2021/08/04 12:51:01;;;;;;;6.75;4.50;;;30.40;46.20;;;;;;4993028;28;20042;-78
2021/08/04 12:53:35;;;;;;;5.60;3.97;;;30.40;46.20;;;;;;4974954;28;20354;-78